sensor_id;sensor_type;location;lat;lon;timestamp;temperature;humidity
12841;DHT22;6487;48.626;12.486;2022-08-11T00:02:32;17.80;86.70
12841;DHT22;6487;48.626;12.486;2022-08-11T00:05:07;17.70;87.10
12841;DHT22;6487;48.626;12.486;2022-08-11T00:07:43;17.70;87.50
12841;DHT22;6487;48.626;12.486;2022-08-11T00:10:16;17.70;87.30
12841;DHT22;6487;48.626;12.486;2022-08-11T00:12:52;17.70;87.10
12841;DHT22;6487;48.626;12.486;2022-08-11T00:15:22;17.60;87.60
12841;DHT22;6487;48.626;12.486;2022-08-11T00:17:56;17.60;87.70
12841;DHT22;6487;48.626;12.486;2022-08-11T00:20:29;17.50;87.90
12841;DHT22;6487;48.626;12.486;2022-08-11T00:23:05;17.50;87.30
12841;DHT22;6487;48.626;12.486;2022-08-11T00:25:37;17.50;87.80
12841;DHT22;6487;48.626;12.486;2022-08-11T00:28:29;17.50;87.70
12841;DHT22;6487;48.626;12.486;2022-08-11T00:31:02;17.50;88.20
12841;DHT22;6487;48.626;12.486;2022-08-11T00:33:36;17.40;87.60
12841;DHT22;6487;48.626;12.486;2022-08-11T00:36:13;17.40;87.40
12841;DHT22;6487;48.626;12.486;2022-08-11T00:38:53;17.40;88.10
12841;DHT22;6487;48.626;12.486;2022-08-11T00:41:30;17.40;88.10
12841;DHT22;6487;48.626;12.486;2022-08-11T00:44:22;17.30;88.60
12841;DHT22;6487;48.626;12.486;2022-08-11T00:47:08;17.30;89.30
12841;DHT22;6487;48.626;12.486;2022-08-11T00:49:51;17.40;88.50
12841;DHT22;6487;48.626;12.486;2022-08-11T00:52:46;17.30;89.10
12841;DHT22;6487;48.626;12.486;2022-08-11T00:59:18;17.10;89.00
12841;DHT22;6487;48.626;12.486;2022-08-11T01:02:13;17.20;89.40
12841;DHT22;6487;48.626;12.486;2022-08-11T01:11:39;17.20;90.00
12841;DHT22;6487;48.626;12.486;2022-08-11T01:22:08;17.00;90.50
12841;DHT22;6487;48.626;12.486;2022-08-11T01:33:12;16.90;90.30
12841;DHT22;6487;48.626;12.486;2022-08-11T01:36:43;16.90;90.50
12841;DHT22;6487;48.626;12.486;2022-08-11T01:46:52;16.80;90.50
12841;DHT22;6487;48.626;12.486;2022-08-11T01:49:29;16.80;90.40
12841;DHT22;6487;48.626;12.486;2022-08-11T01:52:27;16.80;90.60
12841;DHT22;6487;48.626;12.486;2022-08-11T01:55:09;16.80;90.70
12841;DHT22;6487;48.626;12.486;2022-08-11T01:57:45;16.70;91.00
12841;DHT22;6487;48.626;12.486;2022-08-11T02:00:20;16.70;90.90
12841;DHT22;6487;48.626;12.486;2022-08-11T02:02:58;16.60;90.90
12841;DHT22;6487;48.626;12.486;2022-08-11T02:05:44;16.60;90.90
12841;DHT22;6487;48.626;12.486;2022-08-11T02:08:35;16.70;91.00
12841;DHT22;6487;48.626;12.486;2022-08-11T02:11:22;16.60;91.50
12841;DHT22;6487;48.626;12.486;2022-08-11T02:14:18;16.50;91.20
12841;DHT22;6487;48.626;12.486;2022-08-11T02:17:01;16.50;91.60
12841;DHT22;6487;48.626;12.486;2022-08-11T02:19:47;16.50;91.30
12841;DHT22;6487;48.626;12.486;2022-08-11T02:22:45;16.50;91.50
12841;DHT22;6487;48.626;12.486;2022-08-11T02:25:38;16.40;91.60
12841;DHT22;6487;48.626;12.486;2022-08-11T02:28:20;16.40;91.50
12841;DHT22;6487;48.626;12.486;2022-08-11T02:31:02;16.30;91.80
12841;DHT22;6487;48.626;12.486;2022-08-11T02:34:21;16.30;91.80
12841;DHT22;6487;48.626;12.486;2022-08-11T02:37:00;16.30;91.60
12841;DHT22;6487;48.626;12.486;2022-08-11T02:39:58;16.30;91.60
12841;DHT22;6487;48.626;12.486;2022-08-11T02:42:49;16.20;92.00
12841;DHT22;6487;48.626;12.486;2022-08-11T02:45:46;16.30;91.70
12841;DHT22;6487;48.626;12.486;2022-08-11T02:48:38;16.20;91.90
12841;DHT22;6487;48.626;12.486;2022-08-11T02:51:40;16.30;91.70
12841;DHT22;6487;48.626;12.486;2022-08-11T02:54:16;16.20;91.90
12841;DHT22;6487;48.626;12.486;2022-08-11T02:56:56;16.20;92.00
12841;DHT22;6487;48.626;12.486;2022-08-11T02:59:41;16.10;91.90
12841;DHT22;6487;48.626;12.486;2022-08-11T03:02:32;16.10;92.10
12841;DHT22;6487;48.626;12.486;2022-08-11T03:05:21;16.00;92.20
12841;DHT22;6487;48.626;12.486;2022-08-11T03:08:20;16.10;91.80
12841;DHT22;6487;48.626;12.486;2022-08-11T03:11:04;16.00;92.00
12841;DHT22;6487;48.626;12.486;2022-08-11T03:14:06;15.90;91.90
12841;DHT22;6487;48.626;12.486;2022-08-11T03:17:05;16.00;92.20
12841;DHT22;6487;48.626;12.486;2022-08-11T03:19:50;15.90;92.20
12841;DHT22;6487;48.626;12.486;2022-08-11T03:22:29;15.80;92.30
12841;DHT22;6487;48.626;12.486;2022-08-11T03:25:19;15.80;92.30
12841;DHT22;6487;48.626;12.486;2022-08-11T03:28:08;15.80;92.30
12841;DHT22;6487;48.626;12.486;2022-08-11T03:30:47;15.80;92.40
12841;DHT22;6487;48.626;12.486;2022-08-11T03:33:26;15.80;92.50
12841;DHT22;6487;48.626;12.486;2022-08-11T03:36:27;15.70;92.50
12841;DHT22;6487;48.626;12.486;2022-08-11T03:39:47;15.70;92.50
12841;DHT22;6487;48.626;12.486;2022-08-11T03:42:27;15.60;92.70
12841;DHT22;6487;48.626;12.486;2022-08-11T03:45:04;15.60;92.60
12841;DHT22;6487;48.626;12.486;2022-08-11T03:48:02;15.60;92.80
12841;DHT22;6487;48.626;12.486;2022-08-11T03:50:52;15.60;93.10
12841;DHT22;6487;48.626;12.486;2022-08-11T03:53:38;15.60;93.20
12841;DHT22;6487;48.626;12.486;2022-08-11T03:56:48;15.50;93.00
12841;DHT22;6487;48.626;12.486;2022-08-11T04:00:09;15.50;93.20
12841;DHT22;6487;48.626;12.486;2022-08-11T04:03:16;15.50;93.30
12841;DHT22;6487;48.626;12.486;2022-08-11T04:16:40;15.40;93.20
12841;DHT22;6487;48.626;12.486;2022-08-11T04:30:06;15.40;93.10
12841;DHT22;6487;48.626;12.486;2022-08-11T04:32:56;15.50;92.90
12841;DHT22;6487;48.626;12.486;2022-08-11T04:35:41;15.50;92.80
12841;DHT22;6487;48.626;12.486;2022-08-11T04:38:55;15.60;92.50
12841;DHT22;6487;48.626;12.486;2022-08-11T04:41:52;15.60;93.10
12841;DHT22;6487;48.626;12.486;2022-08-11T04:45:31;15.70;93.20
12841;DHT22;6487;48.626;12.486;2022-08-11T04:48:31;15.80;92.90
12841;DHT22;6487;48.626;12.486;2022-08-11T04:52:10;15.80;92.30
12841;DHT22;6487;48.626;12.486;2022-08-11T04:55:34;15.90;92.20
12841;DHT22;6487;48.626;12.486;2022-08-11T04:58:43;16.00;92.20
12841;DHT22;6487;48.626;12.486;2022-08-11T05:02:12;16.00;92.60
12841;DHT22;6487;48.626;12.486;2022-08-11T05:05:14;16.00;92.10
12841;DHT22;6487;48.626;12.486;2022-08-11T05:08:35;16.10;92.30
12841;DHT22;6487;48.626;12.486;2022-08-11T05:14:47;16.20;91.70
12841;DHT22;6487;48.626;12.486;2022-08-11T05:17:37;16.30;91.80
12841;DHT22;6487;48.626;12.486;2022-08-11T05:20:46;16.30;91.70
12841;DHT22;6487;48.626;12.486;2022-08-11T05:23:40;16.30;91.70
12841;DHT22;6487;48.626;12.486;2022-08-11T05:26:30;16.40;91.80
12841;DHT22;6487;48.626;12.486;2022-08-11T05:29:35;16.40;91.30
12841;DHT22;6487;48.626;12.486;2022-08-11T05:32:32;16.50;91.40
12841;DHT22;6487;48.626;12.486;2022-08-11T05:35:30;16.50;91.90
12841;DHT22;6487;48.626;12.486;2022-08-11T05:38:24;16.70;91.20
12841;DHT22;6487;48.626;12.486;2022-08-11T05:41:11;16.80;90.90
12841;DHT22;6487;48.626;12.486;2022-08-11T05:44:00;16.90;91.10
12841;DHT22;6487;48.626;12.486;2022-08-11T05:46:50;17.00;90.50
12841;DHT22;6487;48.626;12.486;2022-08-11T05:49:36;17.10;90.10
12841;DHT22;6487;48.626;12.486;2022-08-11T05:52:26;17.20;90.10
12841;DHT22;6487;48.626;12.486;2022-08-11T05:55:22;17.30;90.40
12841;DHT22;6487;48.626;12.486;2022-08-11T05:58:33;17.50;90.40
12841;DHT22;6487;48.626;12.486;2022-08-11T06:01:08;17.60;90.00
12841;DHT22;6487;48.626;12.486;2022-08-11T06:03:42;17.70;90.00
12841;DHT22;6487;48.626;12.486;2022-08-11T06:06:29;17.80;90.10
12841;DHT22;6487;48.626;12.486;2022-08-11T06:08:58;17.90;89.70
12841;DHT22;6487;48.626;12.486;2022-08-11T06:11:27;18.00;88.40
12841;DHT22;6487;48.626;12.486;2022-08-11T06:14:11;18.20;88.60
12841;DHT22;6487;48.626;12.486;2022-08-11T06:16:41;18.40;89.40
12841;DHT22;6487;48.626;12.486;2022-08-11T06:19:12;18.40;88.20
12841;DHT22;6487;48.626;12.486;2022-08-11T06:21:44;18.60;88.30
12841;DHT22;6487;48.626;12.486;2022-08-11T06:24:14;18.70;88.00
12841;DHT22;6487;48.626;12.486;2022-08-11T06:26:47;18.80;87.70
12841;DHT22;6487;48.626;12.486;2022-08-11T06:29:45;18.90;88.00
12841;DHT22;6487;48.626;12.486;2022-08-11T06:32:24;19.10;87.40
12841;DHT22;6487;48.626;12.486;2022-08-11T06:35:06;19.30;87.20
12841;DHT22;6487;48.626;12.486;2022-08-11T06:37:56;19.40;86.90
12841;DHT22;6487;48.626;12.486;2022-08-11T06:40:35;19.70;86.80
12841;DHT22;6487;48.626;12.486;2022-08-11T06:43:48;19.70;87.00
12841;DHT22;6487;48.626;12.486;2022-08-11T06:46:25;19.90;85.50
12841;DHT22;6487;48.626;12.486;2022-08-11T06:48:55;20.10;87.30
12841;DHT22;6487;48.626;12.486;2022-08-11T06:51:26;20.30;85.90
12841;DHT22;6487;48.626;12.486;2022-08-11T06:54:00;20.30;85.90
12841;DHT22;6487;48.626;12.486;2022-08-11T06:56:34;20.70;85.00
12841;DHT22;6487;48.626;12.486;2022-08-11T06:59:41;20.80;84.90
12841;DHT22;6487;48.626;12.486;2022-08-11T07:02:33;21.10;87.20
12841;DHT22;6487;48.626;12.486;2022-08-11T07:05:07;21.20;84.20
12841;DHT22;6487;48.626;12.486;2022-08-11T07:08:14;21.40;82.50
12841;DHT22;6487;48.626;12.486;2022-08-11T07:11:23;21.60;82.00
12841;DHT22;6487;48.626;12.486;2022-08-11T07:14:30;21.60;82.20
12841;DHT22;6487;48.626;12.486;2022-08-11T07:17:20;21.70;80.40
12841;DHT22;6487;48.626;12.486;2022-08-11T07:19:52;21.80;81.90
12841;DHT22;6487;48.626;12.486;2022-08-11T07:22:40;22.00;80.50
12841;DHT22;6487;48.626;12.486;2022-08-11T07:25:31;22.20;80.90
12841;DHT22;6487;48.626;12.486;2022-08-11T07:28:23;22.40;78.50
12841;DHT22;6487;48.626;12.486;2022-08-11T07:31:13;22.60;78.60
12841;DHT22;6487;48.626;12.486;2022-08-11T07:33:46;22.70;78.90
12841;DHT22;6487;48.626;12.486;2022-08-11T07:36:39;22.80;78.90
12841;DHT22;6487;48.626;12.486;2022-08-11T07:39:14;23.00;78.90
12841;DHT22;6487;48.626;12.486;2022-08-11T07:41:46;23.00;75.10
12841;DHT22;6487;48.626;12.486;2022-08-11T07:44:15;23.00;74.50
12841;DHT22;6487;48.626;12.486;2022-08-11T07:46:46;23.10;73.70
12841;DHT22;6487;48.626;12.486;2022-08-11T07:49:36;23.20;73.20
12841;DHT22;6487;48.626;12.486;2022-08-11T07:52:27;23.30;71.10
12841;DHT22;6487;48.626;12.486;2022-08-11T07:55:00;23.40;71.30
12841;DHT22;6487;48.626;12.486;2022-08-11T07:57:36;23.50;72.40
12841;DHT22;6487;48.626;12.486;2022-08-11T08:00:44;23.70;72.40
12841;DHT22;6487;48.626;12.486;2022-08-11T08:03:37;23.80;70.00
12841;DHT22;6487;48.626;12.486;2022-08-11T08:06:24;23.40;69.50
12841;DHT22;6487;48.626;12.486;2022-08-11T08:09:11;23.60;69.30
12841;DHT22;6487;48.626;12.486;2022-08-11T08:11:59;23.70;70.20
12841;DHT22;6487;48.626;12.486;2022-08-11T08:14:47;24.10;69.20
12841;DHT22;6487;48.626;12.486;2022-08-11T08:17:34;24.30;67.50
12841;DHT22;6487;48.626;12.486;2022-08-11T08:20:38;24.50;68.40
12841;DHT22;6487;48.626;12.486;2022-08-11T08:23:08;24.80;70.40
12841;DHT22;6487;48.626;12.486;2022-08-11T08:25:39;25.10;67.20
12841;DHT22;6487;48.626;12.486;2022-08-11T08:28:13;25.00;64.70
12841;DHT22;6487;48.626;12.486;2022-08-11T08:30:44;25.00;67.00
12841;DHT22;6487;48.626;12.486;2022-08-11T08:33:19;25.20;65.60
12841;DHT22;6487;48.626;12.486;2022-08-11T08:35:51;25.10;63.20
12841;DHT22;6487;48.626;12.486;2022-08-11T08:38:39;25.50;65.50
12841;DHT22;6487;48.626;12.486;2022-08-11T08:41:08;25.80;64.00
12841;DHT22;6487;48.626;12.486;2022-08-11T08:43:43;25.80;64.00
12841;DHT22;6487;48.626;12.486;2022-08-11T08:46:20;26.10;61.70
12841;DHT22;6487;48.626;12.486;2022-08-11T08:48:50;26.10;61.00
12841;DHT22;6487;48.626;12.486;2022-08-11T08:51:21;26.30;63.60
12841;DHT22;6487;48.626;12.486;2022-08-11T08:54:27;26.50;60.00
12841;DHT22;6487;48.626;12.486;2022-08-11T08:57:00;26.10;59.10
12841;DHT22;6487;48.626;12.486;2022-08-11T08:59:31;26.20;59.60
12841;DHT22;6487;48.626;12.486;2022-08-11T09:02:17;26.30;58.80
12841;DHT22;6487;48.626;12.486;2022-08-11T09:05:02;26.40;59.40
12841;DHT22;6487;48.626;12.486;2022-08-11T09:07:31;26.60;58.90
12841;DHT22;6487;48.626;12.486;2022-08-11T09:10:07;26.80;58.70
12841;DHT22;6487;48.626;12.486;2022-08-11T09:12:39;26.80;57.20
12841;DHT22;6487;48.626;12.486;2022-08-11T09:15:10;26.70;56.00
12841;DHT22;6487;48.626;12.486;2022-08-11T09:17:48;26.90;56.10
12841;DHT22;6487;48.626;12.486;2022-08-11T09:20:21;26.60;55.50
12841;DHT22;6487;48.626;12.486;2022-08-11T09:22:55;26.60;56.90
12841;DHT22;6487;48.626;12.486;2022-08-11T09:26:02;26.80;56.30
12841;DHT22;6487;48.626;12.486;2022-08-11T09:28:57;27.00;58.00
12841;DHT22;6487;48.626;12.486;2022-08-11T09:31:29;27.00;56.70
12841;DHT22;6487;48.626;12.486;2022-08-11T09:34:07;27.20;57.30
12841;DHT22;6487;48.626;12.486;2022-08-11T09:36:38;27.60;57.50
12841;DHT22;6487;48.626;12.486;2022-08-11T09:39:25;27.60;55.20
12841;DHT22;6487;48.626;12.486;2022-08-11T09:42:12;27.80;56.90
12841;DHT22;6487;48.626;12.486;2022-08-11T09:44:50;27.90;55.40
12841;DHT22;6487;48.626;12.486;2022-08-11T09:47:21;28.10;57.80
12841;DHT22;6487;48.626;12.486;2022-08-11T09:49:55;28.30;55.40
12841;DHT22;6487;48.626;12.486;2022-08-11T09:52:30;28.40;56.40
12841;DHT22;6487;48.626;12.486;2022-08-11T09:55:02;28.40;56.20
12841;DHT22;6487;48.626;12.486;2022-08-11T09:57:38;28.30;52.70
12841;DHT22;6487;48.626;12.486;2022-08-11T10:00:28;28.30;52.90
12841;DHT22;6487;48.626;12.486;2022-08-11T10:02:58;28.10;53.00
12841;DHT22;6487;48.626;12.486;2022-08-11T10:05:30;28.20;53.20
12841;DHT22;6487;48.626;12.486;2022-08-11T10:08:17;28.00;53.50
12841;DHT22;6487;48.626;12.486;2022-08-11T10:10:46;28.20;51.20
12841;DHT22;6487;48.626;12.486;2022-08-11T10:13:17;28.60;53.30
12841;DHT22;6487;48.626;12.486;2022-08-11T10:16:12;28.80;53.70
12841;DHT22;6487;48.626;12.486;2022-08-11T10:18:45;28.80;51.30
12841;DHT22;6487;48.626;12.486;2022-08-11T10:21:31;28.80;52.90
12841;DHT22;6487;48.626;12.486;2022-08-11T10:27:27;29.20;53.10
12841;DHT22;6487;48.626;12.486;2022-08-11T10:30:15;29.30;53.80
12841;DHT22;6487;48.626;12.486;2022-08-11T10:33:08;29.40;50.50
12841;DHT22;6487;48.626;12.486;2022-08-11T10:36:06;29.60;53.20
12841;DHT22;6487;48.626;12.486;2022-08-11T10:38:45;29.50;50.50
12841;DHT22;6487;48.626;12.486;2022-08-11T10:41:16;29.60;51.50
12841;DHT22;6487;48.626;12.486;2022-08-11T10:44:22;29.60;49.10
12841;DHT22;6487;48.626;12.486;2022-08-11T10:46:51;29.50;49.20
12841;DHT22;6487;48.626;12.486;2022-08-11T10:49:37;29.30;49.20
12841;DHT22;6487;48.626;12.486;2022-08-11T10:52:07;29.30;48.30
12841;DHT22;6487;48.626;12.486;2022-08-11T10:54:54;29.60;49.60
12841;DHT22;6487;48.626;12.486;2022-08-11T10:57:40;29.70;51.50
12841;DHT22;6487;48.626;12.486;2022-08-11T11:00:31;29.50;48.80
12841;DHT22;6487;48.626;12.486;2022-08-11T11:03:01;29.60;49.40
12841;DHT22;6487;48.626;12.486;2022-08-11T11:05:50;29.80;49.40
12841;DHT22;6487;48.626;12.486;2022-08-11T11:08:45;29.90;48.80
12841;DHT22;6487;48.626;12.486;2022-08-11T11:11:30;29.90;48.80
12841;DHT22;6487;48.626;12.486;2022-08-11T11:14:21;29.90;49.50
12841;DHT22;6487;48.626;12.486;2022-08-11T11:17:22;29.90;48.30
12841;DHT22;6487;48.626;12.486;2022-08-11T11:20:15;30.00;51.00
12841;DHT22;6487;48.626;12.486;2022-08-11T11:23:07;30.00;49.60
12841;DHT22;6487;48.626;12.486;2022-08-11T11:25:59;29.90;47.70
12841;DHT22;6487;48.626;12.486;2022-08-11T11:28:55;29.90;48.40
12841;DHT22;6487;48.626;12.486;2022-08-11T11:31:53;30.00;49.10
12841;DHT22;6487;48.626;12.486;2022-08-11T11:34:41;30.10;47.90
12841;DHT22;6487;48.626;12.486;2022-08-11T11:37:21;30.20;50.50
12841;DHT22;6487;48.626;12.486;2022-08-11T11:39:51;30.30;47.10
12841;DHT22;6487;48.626;12.486;2022-08-11T11:42:23;30.40;48.50
12841;DHT22;6487;48.626;12.486;2022-08-11T11:44:54;30.60;47.70
12841;DHT22;6487;48.626;12.486;2022-08-11T11:47:27;30.70;47.50
12841;DHT22;6487;48.626;12.486;2022-08-11T11:49:56;30.50;45.60
12841;DHT22;6487;48.626;12.486;2022-08-11T11:52:25;30.50;46.20
12841;DHT22;6487;48.626;12.486;2022-08-11T11:54:56;30.50;45.80
12841;DHT22;6487;48.626;12.486;2022-08-11T11:57:26;30.50;45.80
12841;DHT22;6487;48.626;12.486;2022-08-11T12:00:28;30.70;47.70
12841;DHT22;6487;48.626;12.486;2022-08-11T12:03:15;30.80;45.70
12841;DHT22;6487;48.626;12.486;2022-08-11T12:05:45;30.70;46.50
12841;DHT22;6487;48.626;12.486;2022-08-11T12:08:14;30.70;46.00
12841;DHT22;6487;48.626;12.486;2022-08-11T12:10:45;30.60;45.70
12841;DHT22;6487;48.626;12.486;2022-08-11T12:13:16;30.50;45.40
12841;DHT22;6487;48.626;12.486;2022-08-11T12:16:04;30.60;44.20
12841;DHT22;6487;48.626;12.486;2022-08-11T12:18:56;30.50;45.30
12841;DHT22;6487;48.626;12.486;2022-08-11T12:21:26;30.60;46.20
12841;DHT22;6487;48.626;12.486;2022-08-11T12:23:58;30.80;45.80
12841;DHT22;6487;48.626;12.486;2022-08-11T12:26:46;30.90;46.20
12841;DHT22;6487;48.626;12.486;2022-08-11T12:29:44;30.90;47.50
12841;DHT22;6487;48.626;12.486;2022-08-11T12:32:26;30.80;47.90
12841;DHT22;6487;48.626;12.486;2022-08-11T12:34:57;30.90;49.40
12841;DHT22;6487;48.626;12.486;2022-08-11T12:37:30;31.10;48.50
12841;DHT22;6487;48.626;12.486;2022-08-11T12:40:06;31.00;49.10
12841;DHT22;6487;48.626;12.486;2022-08-11T12:43:16;30.90;46.30
12841;DHT22;6487;48.626;12.486;2022-08-11T12:46:13;30.40;45.50
12841;DHT22;6487;48.626;12.486;2022-08-11T12:48:50;30.30;47.10
12841;DHT22;6487;48.626;12.486;2022-08-11T12:51:41;30.50;48.00
12841;DHT22;6487;48.626;12.486;2022-08-11T12:54:46;30.40;47.50
12841;DHT22;6487;48.626;12.486;2022-08-11T12:57:28;30.40;47.10
12841;DHT22;6487;48.626;12.486;2022-08-11T13:00:17;30.40;47.60
12841;DHT22;6487;48.626;12.486;2022-08-11T13:03:06;30.50;47.90
12841;DHT22;6487;48.626;12.486;2022-08-11T13:05:58;30.40;48.10
12841;DHT22;6487;48.626;12.486;2022-08-11T13:08:30;30.40;47.80
12841;DHT22;6487;48.626;12.486;2022-08-11T13:11:02;30.60;48.80
12841;DHT22;6487;48.626;12.486;2022-08-11T13:13:49;30.40;47.30
12841;DHT22;6487;48.626;12.486;2022-08-11T13:16:26;30.60;46.70
12841;DHT22;6487;48.626;12.486;2022-08-11T13:18:58;30.50;46.80
12841;DHT22;6487;48.626;12.486;2022-08-11T13:21:29;30.70;46.80
12841;DHT22;6487;48.626;12.486;2022-08-11T13:24:00;30.70;45.60
12841;DHT22;6487;48.626;12.486;2022-08-11T13:26:34;30.50;44.90
12841;DHT22;6487;48.626;12.486;2022-08-11T13:29:19;30.40;47.50
12841;DHT22;6487;48.626;12.486;2022-08-11T13:31:49;30.50;45.10
12841;DHT22;6487;48.626;12.486;2022-08-11T13:34:20;30.40;45.70
12841;DHT22;6487;48.626;12.486;2022-08-11T13:36:53;30.30;45.80
12841;DHT22;6487;48.626;12.486;2022-08-11T13:39:25;30.00;45.40
12841;DHT22;6487;48.626;12.486;2022-08-11T13:41:56;30.00;46.00
12841;DHT22;6487;48.626;12.486;2022-08-11T13:44:27;30.20;47.00
12841;DHT22;6487;48.626;12.486;2022-08-11T13:46:57;30.10;46.10
12841;DHT22;6487;48.626;12.486;2022-08-11T13:49:29;30.30;48.00
12841;DHT22;6487;48.626;12.486;2022-08-11T13:52:00;30.20;46.30
12841;DHT22;6487;48.626;12.486;2022-08-11T13:54:30;30.30;44.50
12841;DHT22;6487;48.626;12.486;2022-08-11T13:57:03;30.30;45.30
12841;DHT22;6487;48.626;12.486;2022-08-11T13:59:35;30.50;47.70
12841;DHT22;6487;48.626;12.486;2022-08-11T14:02:26;30.30;47.20
12841;DHT22;6487;48.626;12.486;2022-08-11T14:05:00;30.40;45.20
12841;DHT22;6487;48.626;12.486;2022-08-11T14:07:36;30.30;47.00
12841;DHT22;6487;48.626;12.486;2022-08-11T14:10:08;30.30;46.30
12841;DHT22;6487;48.626;12.486;2022-08-11T14:12:42;30.10;46.60
12841;DHT22;6487;48.626;12.486;2022-08-11T14:15:32;30.30;48.30
12841;DHT22;6487;48.626;12.486;2022-08-11T14:18:03;30.40;46.40
12841;DHT22;6487;48.626;12.486;2022-08-11T14:20:36;30.00;46.70
12841;DHT22;6487;48.626;12.486;2022-08-11T14:23:28;29.90;46.50
12841;DHT22;6487;48.626;12.486;2022-08-11T14:25:59;29.50;45.10
12841;DHT22;6487;48.626;12.486;2022-08-11T14:28:46;29.50;46.70
12841;DHT22;6487;48.626;12.486;2022-08-11T14:31:15;29.60;46.30
12841;DHT22;6487;48.626;12.486;2022-08-11T14:33:45;29.40;45.90
12841;DHT22;6487;48.626;12.486;2022-08-11T14:36:29;29.10;46.10
12841;DHT22;6487;48.626;12.486;2022-08-11T14:39:03;28.80;46.30
12841;DHT22;6487;48.626;12.486;2022-08-11T14:41:35;28.80;46.60
12841;DHT22;6487;48.626;12.486;2022-08-11T14:44:41;28.70;45.90
12841;DHT22;6487;48.626;12.486;2022-08-11T14:47:44;28.80;47.00
12841;DHT22;6487;48.626;12.486;2022-08-11T14:50:17;29.10;47.60
12841;DHT22;6487;48.626;12.486;2022-08-11T14:52:50;29.10;47.50
12841;DHT22;6487;48.626;12.486;2022-08-11T14:55:23;29.10;48.70
12841;DHT22;6487;48.626;12.486;2022-08-11T14:58:15;29.40;48.60
12841;DHT22;6487;48.626;12.486;2022-08-11T15:00:45;29.30;46.90
12841;DHT22;6487;48.626;12.486;2022-08-11T15:03:14;29.10;48.30
12841;DHT22;6487;48.626;12.486;2022-08-11T15:05:46;29.10;47.60
12841;DHT22;6487;48.626;12.486;2022-08-11T15:08:26;29.30;47.20
12841;DHT22;6487;48.626;12.486;2022-08-11T15:11:21;29.10;47.60
12841;DHT22;6487;48.626;12.486;2022-08-11T15:14:09;28.90;46.90
12841;DHT22;6487;48.626;12.486;2022-08-11T15:16:40;29.20;47.90
12841;DHT22;6487;48.626;12.486;2022-08-11T15:19:28;29.30;49.20
12841;DHT22;6487;48.626;12.486;2022-08-11T15:22:06;29.50;47.20
12841;DHT22;6487;48.626;12.486;2022-08-11T15:24:55;29.30;47.10
12841;DHT22;6487;48.626;12.486;2022-08-11T15:27:29;29.10;47.30
12841;DHT22;6487;48.626;12.486;2022-08-11T15:30:18;29.10;47.00
12841;DHT22;6487;48.626;12.486;2022-08-11T15:33:07;29.20;48.30
12841;DHT22;6487;48.626;12.486;2022-08-11T15:35:55;29.10;47.20
12841;DHT22;6487;48.626;12.486;2022-08-11T15:38:45;28.90;47.70
12841;DHT22;6487;48.626;12.486;2022-08-11T15:41:24;28.80;49.10
12841;DHT22;6487;48.626;12.486;2022-08-11T15:44:30;28.80;48.20
12841;DHT22;6487;48.626;12.486;2022-08-11T15:47:36;28.60;48.80
12841;DHT22;6487;48.626;12.486;2022-08-11T15:50:13;28.60;48.90
12841;DHT22;6487;48.626;12.486;2022-08-11T15:52:51;28.60;49.40
12841;DHT22;6487;48.626;12.486;2022-08-11T15:55:23;28.40;49.00
12841;DHT22;6487;48.626;12.486;2022-08-11T15:57:53;28.40;49.30
12841;DHT22;6487;48.626;12.486;2022-08-11T16:00:42;28.60;50.00
12841;DHT22;6487;48.626;12.486;2022-08-11T16:03:48;28.90;49.50
12841;DHT22;6487;48.626;12.486;2022-08-11T16:06:42;28.70;48.90
12841;DHT22;6487;48.626;12.486;2022-08-11T16:09:19;28.80;49.60
12841;DHT22;6487;48.626;12.486;2022-08-11T16:11:54;28.70;50.10
12841;DHT22;6487;48.626;12.486;2022-08-11T16:14:27;28.40;49.00
12841;DHT22;6487;48.626;12.486;2022-08-11T16:17:17;28.60;50.00
12841;DHT22;6487;48.626;12.486;2022-08-11T16:19:51;28.80;49.60
12841;DHT22;6487;48.626;12.486;2022-08-11T16:22:23;28.80;49.30
12841;DHT22;6487;48.626;12.486;2022-08-11T16:25:04;28.60;49.10
12841;DHT22;6487;48.626;12.486;2022-08-11T16:27:57;28.40;49.60
12841;DHT22;6487;48.626;12.486;2022-08-11T16:30:28;28.70;49.70
12841;DHT22;6487;48.626;12.486;2022-08-11T16:33:02;28.60;48.80
12841;DHT22;6487;48.626;12.486;2022-08-11T16:35:52;28.70;49.30
12841;DHT22;6487;48.626;12.486;2022-08-11T16:38:38;28.60;49.80
12841;DHT22;6487;48.626;12.486;2022-08-11T16:41:10;28.40;49.50
12841;DHT22;6487;48.626;12.486;2022-08-11T16:43:43;28.30;49.90
12841;DHT22;6487;48.626;12.486;2022-08-11T16:46:30;28.30;50.10
12841;DHT22;6487;48.626;12.486;2022-08-11T16:49:26;28.10;49.60
12841;DHT22;6487;48.626;12.486;2022-08-11T16:52:01;28.20;50.30
12841;DHT22;6487;48.626;12.486;2022-08-11T16:54:32;28.10;50.10
12841;DHT22;6487;48.626;12.486;2022-08-11T16:57:03;28.00;50.40
12841;DHT22;6487;48.626;12.486;2022-08-11T16:59:47;27.80;50.90
12841;DHT22;6487;48.626;12.486;2022-08-11T17:02:26;27.80;51.10
12841;DHT22;6487;48.626;12.486;2022-08-11T17:05:19;27.70;51.40
12841;DHT22;6487;48.626;12.486;2022-08-11T17:08:27;27.70;51.20
12841;DHT22;6487;48.626;12.486;2022-08-11T17:11:26;27.60;51.20
12841;DHT22;6487;48.626;12.486;2022-08-11T17:14:16;27.30;51.80
12841;DHT22;6487;48.626;12.486;2022-08-11T17:17:04;27.30;52.20
12841;DHT22;6487;48.626;12.486;2022-08-11T17:19:36;27.30;51.50
12841;DHT22;6487;48.626;12.486;2022-08-11T17:22:30;27.30;52.30
12841;DHT22;6487;48.626;12.486;2022-08-11T17:25:18;27.20;51.70
12841;DHT22;6487;48.626;12.486;2022-08-11T17:27:47;27.00;51.60
12841;DHT22;6487;48.626;12.486;2022-08-11T17:30:18;26.90;51.80
12841;DHT22;6487;48.626;12.486;2022-08-11T17:32:49;26.90;51.70
12841;DHT22;6487;48.626;12.486;2022-08-11T17:35:37;27.00;51.90
12841;DHT22;6487;48.626;12.486;2022-08-11T17:38:10;26.90;51.50
12841;DHT22;6487;48.626;12.486;2022-08-11T17:40:44;26.90;51.90
12841;DHT22;6487;48.626;12.486;2022-08-11T17:43:29;26.70;53.00
12841;DHT22;6487;48.626;12.486;2022-08-11T17:46:31;26.60;52.40
12841;DHT22;6487;48.626;12.486;2022-08-11T17:49:18;26.50;52.50
12841;DHT22;6487;48.626;12.486;2022-08-11T17:51:48;26.50;53.20
12841;DHT22;6487;48.626;12.486;2022-08-11T17:54:37;26.50;53.40
12841;DHT22;6487;48.626;12.486;2022-08-11T17:57:25;26.40;53.10
12841;DHT22;6487;48.626;12.486;2022-08-11T18:00:14;26.40;53.80
12841;DHT22;6487;48.626;12.486;2022-08-11T18:02:44;26.30;53.00
12841;DHT22;6487;48.626;12.486;2022-08-11T18:05:31;26.30;53.40
12841;DHT22;6487;48.626;12.486;2022-08-11T18:08:04;26.30;53.80
12841;DHT22;6487;48.626;12.486;2022-08-11T18:10:53;26.20;54.50
12841;DHT22;6487;48.626;12.486;2022-08-11T18:14:02;26.10;54.70
12841;DHT22;6487;48.626;12.486;2022-08-11T18:16:51;26.00;55.10
12841;DHT22;6487;48.626;12.486;2022-08-11T18:19:37;25.70;54.70